Terminal Aerodrome Forecast
Issued by NWS

Current Version | Previous Version | Graphics & Text | Print | Product List | Glossary On
Versions: 1 2 3 4 5 6 7 8 9 10 11 12 13 14 15 16 17 18 19 20 21 22 23
000
FTUS41 KRLX 160900 AAA
TAFCKB
TAF AMD
KCKB 160904Z 1609/1706 00000KT P6SM BKN045 OVC060
     FM161000 14005KT 6SM -SHRA OVC035
     FM161400 17007KT 5SM -SHRA OVC020
     FM161700 21008KT P6SM OVC016
     FM162000 25010G18KT P6SM OVC014=

USA.gov is the U.S. government's official web portal to all federal, state and local government web resources and services.